< Typhoon 197412 1974 Season Typhoon 197414 >
Typhoon 197413 (LUCY)
General InformationTrack Information on Google Maps || Disaster Info.ResourceGoogle EarthGE AnimationAtom FeedGeoJSON
Detalied Best Track (Time Zone = UTC)
Year Month Day Hour Lat. Long. Pressure (hPa) Wind (kt) Class Image Chart
1974 8 7 00 16.0 117.0 1004 0 2 -- Chart
1974 8 7 06 16.0 117.2 1002 0 2 -- Chart
1974 8 7 12 16.0 117.5 1002 0 2 -- Chart
1974 8 7 18 16.3 117.7 1002 0 2 -- Chart
1974 8 8 00 16.6 118.0 1002 0 2 -- Chart
1974 8 8 06 16.8 118.2 1000 0 2 -- Chart
1974 8 8 12 17.0 118.5 1000 0 2 -- Chart
1974 8 8 18 17.7 118.8 1000 0 2 -- Chart
1974 8 9 00 18.5 119.1 998 0 2 -- Chart
1974 8 9 06 19.3 119.5 994 0 2 -- Chart
1974 8 9 12 20.2 119.7 994 0 9 -- Chart
1974 8 9 18 21.2 120.0 994 0 9 -- Chart
1974 8 10 00 22.0 119.7 994 0 9 -- Chart
1974 8 10 06 22.7 119.6 994 0 9 -- Chart
1974 8 10 12 23.6 119.4 995 0 2 -- Chart
1974 8 10 18 24.0 119.0 994 0 2 -- Chart
1974 8 11 00 24.0 119.0 994 0 2 -- Chart
1974 8 11 06 24.5 118.0 994 0 2 -- Chart
1974 8 11 12 25.0 117.5 994 0 2 -- Chart
1974 8 11 18 25.5 116.5 995 0 2 -- Chart
1974 8 12 00 26.5 116.0 996 0 2 -- Chart
Japan Meteorological Agency Best Track Data | Correction Date : 1989-06-01
< Typhoon 197412 1974 Season Typhoon 197414 >

Help